createdAt,value
2019-06-01T00:01:15.574Z,102124.69
2019-06-01T00:03:44.828Z,102122.07
2019-06-01T00:06:14.134Z,102129.39
2019-06-01T00:08:43.394Z,102122.16
2019-06-01T00:11:12.686Z,102118.07
2019-06-01T00:13:41.975Z,102116.78
2019-06-01T00:16:11.286Z,102116.61
2019-06-01T00:18:41.818Z,102109.84
2019-06-01T00:21:11.162Z,102112.05
2019-06-01T00:23:40.504Z,102111.70
2019-06-01T00:26:09.821Z,102110.12
2019-06-01T00:28:39.093Z,102108.79
2019-06-01T00:31:08.390Z,102108.95
2019-06-01T00:33:37.631Z,102105.87
2019-06-01T00:36:06.969Z,102105.59
2019-06-01T00:38:36.236Z,102101.55
2019-06-01T00:41:05.567Z,102105.33
2019-06-01T00:43:34.820Z,102104.45
2019-06-01T00:46:04.535Z,102108.72
2019-06-01T00:48:33.789Z,102109.27
2019-06-01T00:51:03.099Z,102100.94
2019-06-01T00:53:32.443Z,102100.95
2019-06-01T00:56:01.762Z,102101.91
2019-06-01T00:58:31.042Z,102101.81
2019-06-01T01:01:00.353Z,102103.64
2019-06-01T01:03:29.706Z,102108.30
2019-06-01T01:05:59.092Z,102100.91
2019-06-01T01:08:28.358Z,102104.53
2019-06-01T01:10:57.670Z,102100.70
2019-06-01T01:13:27.609Z,102104.87
2019-06-01T01:15:56.905Z,102100.39
2019-06-01T01:20:56.262Z,102098.50
2019-06-01T01:23:25.575Z,102100.13
2019-06-01T01:25:54.857Z,102106.20
2019-06-01T01:28:24.137Z,102098.80
2019-06-01T01:31:06.833Z,102108.52
2019-06-01T01:33:24.340Z,102106.62
2019-06-01T01:35:54.198Z,102110.27
2019-06-01T01:38:23.543Z,102110.00
2019-06-01T01:40:54.105Z,102105.92
2019-06-01T01:43:23.445Z,102114.36
2019-06-01T01:45:52.825Z,102108.81
2019-06-01T01:48:22.076Z,102110.80
2019-06-01T01:50:52.400Z,102110.75
2019-06-01T01:53:21.662Z,102114.16
2019-06-01T01:55:51.045Z,102104.45
2019-06-01T01:58:20.280Z,102107.48
2019-06-01T02:00:52.966Z,102107.23
2019-06-01T02:03:21.514Z,102105.70
2019-06-01T02:05:50.843Z,102103.11
2019-06-01T02:08:20.054Z,102101.53
2019-06-01T02:10:49.304Z,102093.66
2019-06-01T02:13:18.555Z,102095.74
2019-06-01T02:15:47.781Z,102102.83
2019-06-01T02:18:17.064Z,102092.84
2019-06-01T02:20:46.419Z,102092.48
2019-06-01T02:23:15.744Z,102097.59
2019-06-01T02:25:45.136Z,102090.74
2019-06-01T02:28:14.471Z,102085.69
2019-06-01T02:30:43.853Z,102098.97
2019-06-01T02:33:13.167Z,102097.70
2019-06-01T02:35:42.464Z,102093.84
2019-06-01T02:38:11.724Z,102091.16
2019-06-01T02:40:41.056Z,102089.19
2019-06-01T02:43:10.353Z,102086.11
2019-06-01T02:45:39.777Z,102091.50
2019-06-01T02:48:09.054Z,102080.77
2019-06-01T02:50:38.386Z,102089.42
2019-06-01T02:53:07.832Z,102088.24
2019-06-01T02:55:37.104Z,102090.76
2019-06-01T02:58:06.845Z,102085.92
2019-06-01T03:01:56.830Z,102090.58
2019-06-01T03:04:15.905Z,102093.69
2019-06-01T03:06:45.227Z,102085.57
2019-06-01T03:09:14.796Z,102089.75
2019-06-01T03:11:45.445Z,102085.97
2019-06-01T03:14:14.783Z,102089.73
2019-06-01T03:16:44.519Z,102092.70
2019-06-01T03:19:17.054Z,102086.16
2019-06-01T03:21:49.745Z,102089.42
2019-06-01T03:24:23.781Z,102081.77
2019-06-01T03:26:54.748Z,102083.61
2019-06-01T03:29:27.100Z,102088.48
2019-06-01T03:32:17.727Z,102099.94
2019-06-01T03:34:27.502Z,102095.52
2019-06-01T03:36:56.856Z,102098.32
2019-06-01T03:39:26.138Z,102103.02
2019-06-01T03:41:55.833Z,102105.75
2019-06-01T03:44:25.207Z,102098.28
2019-06-01T03:46:54.471Z,102096.35
2019-06-01T03:49:23.728Z,102104.79
2019-06-01T03:51:52.981Z,102090.58
2019-06-01T03:54:22.228Z,102095.02
2019-06-01T03:56:51.495Z,102097.84
2019-06-01T03:59:20.750Z,102091.30
2019-06-01T04:01:50.118Z,102099.66
2019-06-01T04:04:19.372Z,102102.38
2019-06-01T04:06:48.673Z,102096.57
2019-06-01T04:09:17.890Z,102109.81
2019-06-01T04:11:47.201Z,102101.68
2019-06-01T04:14:16.436Z,102108.72
2019-06-01T04:16:45.761Z,102110.73
2019-06-01T04:19:15.014Z,102114.44
2019-06-01T04:21:44.289Z,102114.75
2019-06-01T04:24:13.688Z,102116.06
2019-06-01T04:26:43.012Z,102109.36
2019-06-01T04:29:12.648Z,102111.24
2019-06-01T04:31:42.046Z,102113.94
2019-06-01T04:34:11.269Z,102113.16
2019-06-01T04:36:40.602Z,102113.84
2019-06-01T04:39:09.867Z,102116.36
2019-06-01T04:41:39.164Z,102115.97
2019-06-01T04:44:08.498Z,102108.89
2019-06-01T04:46:37.790Z,102111.97
2019-06-01T04:49:07.037Z,102100.00
2019-06-01T04:51:36.305Z,102099.71
2019-06-01T04:54:06.836Z,102102.24
2019-06-01T04:56:36.476Z,102108.45
2019-06-01T04:59:06.820Z,102104.73
2019-06-01T05:01:36.224Z,102100.30
2019-06-01T05:04:07.014Z,102104.98
2019-06-01T05:06:36.387Z,102099.27
2019-06-01T05:09:09.169Z,102101.41
2019-06-01T05:11:38.560Z,102098.86
2019-06-01T05:14:07.820Z,102095.80
2019-06-01T05:16:37.051Z,102100.11
2019-06-01T05:19:06.308Z,102099.36
2019-06-01T05:21:35.532Z,102086.02
2019-06-01T05:24:04.860Z,102085.00
2019-06-01T05:26:34.123Z,102086.30
2019-06-01T05:29:03.403Z,102089.62
2019-06-01T05:31:32.633Z,102085.11
2019-06-01T05:34:01.876Z,102088.34
2019-06-01T05:36:31.089Z,102092.65
2019-06-01T05:39:00.312Z,102082.47
2019-06-01T05:41:29.571Z,102090.25
2019-06-01T05:43:58.852Z,102090.28
2019-06-01T05:46:28.033Z,102092.96
2019-06-01T05:48:57.258Z,102088.27
2019-06-01T05:51:27.288Z,102096.79
2019-06-01T05:53:56.530Z,102094.83
2019-06-01T05:56:25.804Z,102086.50
2019-06-01T05:58:55.062Z,102098.31
2019-06-01T06:01:24.306Z,102100.46
2019-06-01T06:03:53.567Z,102100.27
2019-06-01T06:06:22.884Z,102104.62
2019-06-01T06:08:52.124Z,102108.34
2019-06-01T06:11:21.362Z,102107.75
2019-06-01T06:13:50.572Z,102109.59
2019-06-01T06:16:48.206Z,102113.74
2019-06-01T06:19:20.476Z,102115.73
2019-06-01T06:21:48.590Z,102116.69
2019-06-01T06:24:18.518Z,102111.28
2019-06-01T06:26:47.951Z,102118.52
2019-06-01T06:29:17.378Z,102130.56
2019-06-01T06:31:46.681Z,102123.48
2019-06-01T06:34:15.919Z,102125.53
2019-06-01T06:36:45.191Z,102125.20
2019-06-01T06:39:14.458Z,102118.44
2019-06-01T06:41:43.966Z,102112.64
2019-06-01T06:44:14.311Z,102107.17
2019-06-01T06:46:43.725Z,102105.52
2019-06-01T06:49:13.035Z,102119.47
2019-06-01T06:51:42.314Z,102123.03
2019-06-01T06:54:14.478Z,102111.31
2019-06-01T06:56:42.725Z,102111.12
2019-06-01T06:59:12.195Z,102096.34
2019-06-01T07:01:41.500Z,102099.06
2019-06-01T07:04:13.013Z,102098.20
2019-06-01T07:06:41.861Z,102098.78
2019-06-01T07:09:11.143Z,102104.08
2019-06-01T07:11:40.443Z,102103.38
2019-06-01T07:14:09.745Z,102099.50
2019-06-01T07:16:39.026Z,102108.30
2019-06-01T07:19:08.345Z,102101.25
2019-06-01T07:21:37.856Z,102106.47
2019-06-01T07:24:07.100Z,102104.78
2019-06-01T07:26:36.333Z,102095.13
2019-06-01T07:29:05.631Z,102099.84
2019-06-01T07:31:34.954Z,102098.14
2019-06-01T07:34:04.183Z,102100.06
2019-06-01T07:36:33.434Z,102098.95
2019-06-01T07:39:02.674Z,102090.58
2019-06-01T07:41:33.070Z,102102.33
2019-06-01T07:44:02.477Z,102101.13
2019-06-01T07:46:33.163Z,102100.35
2019-06-01T07:49:02.557Z,102101.85
2019-06-01T07:51:31.867Z,102111.45
2019-06-01T07:54:01.169Z,102105.60
2019-06-01T07:56:30.807Z,102096.56
2019-06-01T07:59:00.046Z,102101.03
2019-06-01T08:01:30.937Z,102104.41
2019-06-01T08:04:00.316Z,102107.51
2019-06-01T08:06:31.038Z,102104.30
2019-06-01T08:09:00.609Z,102101.13
2019-06-01T08:11:32.893Z,102100.27
2019-06-01T08:14:00.925Z,102093.84
2019-06-01T08:16:30.128Z,102097.56
2019-06-01T08:18:59.407Z,102098.16
2019-06-01T08:21:29.859Z,102111.81
2019-06-01T08:23:59.472Z,102099.77
2019-06-01T08:26:28.806Z,102101.02
2019-06-01T08:28:58.067Z,102100.17
2019-06-01T08:31:28.616Z,102091.33
2019-06-01T08:33:58.002Z,102093.97
2019-06-01T08:36:27.355Z,102096.59
2019-06-01T08:38:56.592Z,102094.72
2019-06-01T08:41:25.806Z,102092.06
2019-06-01T08:43:55.056Z,102092.34
2019-06-01T08:46:25.462Z,102093.41
2019-06-01T08:48:54.842Z,102089.49
2019-06-01T08:51:24.307Z,102086.92
2019-06-01T08:53:53.562Z,102090.28
2019-06-01T08:56:24.089Z,102089.66
2019-06-01T08:58:53.441Z,102088.75
2019-06-01T09:01:22.700Z,102090.89
2019-06-01T09:03:51.950Z,102083.48
2019-06-01T09:06:21.213Z,102089.95
2019-06-01T09:08:50.500Z,102088.40
2019-06-01T09:11:19.739Z,102090.70
2019-06-01T09:13:52.135Z,102090.03
2019-06-01T09:16:19.935Z,102081.09
2019-06-01T09:18:49.149Z,102078.80
2019-06-01T09:21:18.406Z,102076.24
2019-06-01T09:23:47.641Z,102080.83
2019-06-01T09:26:16.890Z,102077.51
2019-06-01T09:28:46.126Z,102068.85
2019-06-01T09:31:15.407Z,102077.28
2019-06-01T09:33:44.611Z,102071.03
2019-06-01T09:36:13.856Z,102073.72
2019-06-01T09:38:43.073Z,102067.42
2019-06-01T09:41:12.363Z,102071.10
2019-06-01T09:43:41.590Z,102067.50
2019-06-01T09:46:10.880Z,102070.64
2019-06-01T09:48:40.083Z,102070.27
2019-06-01T09:51:09.360Z,102072.28
2019-06-01T09:53:38.597Z,102071.56
2019-06-01T09:56:08.078Z,102075.17
2019-06-01T09:58:38.748Z,102067.50
2019-06-01T10:01:08.225Z,102077.64
2019-06-01T10:03:38.572Z,102068.52
2019-06-01T10:06:08.047Z,102078.96
2019-06-01T10:08:38.155Z,102061.75
2019-06-01T10:11:07.473Z,102061.01
2019-06-01T10:13:36.734Z,102063.94
2019-06-01T10:16:08.060Z,102057.61
2019-06-01T10:18:37.109Z,102054.13
2019-06-01T10:21:06.362Z,102060.30
2019-06-01T10:23:36.515Z,102047.75
2019-06-01T10:26:05.952Z,102046.08
2019-06-01T10:28:35.756Z,102042.78
2019-06-01T10:31:05.185Z,102047.32
2019-06-01T10:33:34.838Z,102046.41
2019-06-01T10:36:19.174Z,102046.77
2019-06-01T10:38:35.257Z,102044.69
2019-06-01T10:41:04.471Z,102044.09
2019-06-01T10:43:33.784Z,102045.57
2019-06-01T10:46:03.038Z,102047.36
2019-06-01T10:48:33.165Z,102038.06
2019-06-01T10:51:03.449Z,102037.45
2019-06-01T10:53:34.643Z,102033.17
2019-06-01T10:56:03.851Z,102031.56
2019-06-01T10:58:34.328Z,102028.22
2019-06-01T11:01:03.900Z,102036.58
2019-06-01T11:03:33.133Z,102017.05
2019-06-01T11:06:02.368Z,102017.05
2019-06-01T11:08:32.761Z,102025.97
2019-06-01T11:11:02.079Z,102022.36
2019-06-01T11:13:31.315Z,102022.36
2019-06-01T11:16:00.546Z,102015.67
2019-06-01T11:18:29.788Z,102015.30
2019-06-01T11:20:59.013Z,102009.09
2019-06-01T11:23:28.404Z,102013.89
2019-06-01T11:25:57.633Z,102014.05
2019-06-01T11:28:26.894Z,102014.05
2019-06-01T11:30:56.127Z,102006.16
2019-06-01T11:33:25.381Z,101994.91
2019-06-01T11:35:54.594Z,101997.13
2019-06-01T11:38:23.825Z,101997.13
2019-06-01T11:40:53.064Z,101998.86
2019-06-01T11:43:22.323Z,101998.55
2019-06-01T11:45:51.580Z,101998.55
2019-06-01T11:48:20.826Z,101996.33
2019-06-01T11:50:50.230Z,101991.45
2019-06-01T11:53:19.509Z,101978.92
2019-06-01T11:55:48.746Z,101978.92
2019-06-01T11:58:18.045Z,101983.67
2019-06-01T12:00:47.266Z,101981.04
2019-06-01T12:03:16.608Z,101975.22
2019-06-01T12:05:46.125Z,101975.22
2019-06-01T12:08:15.529Z,101979.34
2019-06-01T12:10:45.301Z,101979.41
2019-06-01T12:13:14.645Z,101975.11
2019-06-01T12:15:44.399Z,101965.71
2019-06-01T12:18:13.728Z,101958.45
2019-06-01T12:20:42.987Z,101959.67
2019-06-01T12:23:12.289Z,101960.81
2019-06-01T12:25:42.182Z,101960.27
2019-06-01T12:28:11.470Z,101947.55
2019-06-01T12:30:41.578Z,101952.35
2019-06-01T12:33:10.924Z,101950.96
2019-06-01T12:35:40.175Z,101946.94
2019-06-01T12:38:09.381Z,101948.04
2019-06-01T12:40:39.101Z,101945.00
2019-06-01T12:43:08.436Z,101932.49
2019-06-01T12:45:37.700Z,101937.91
2019-06-01T12:48:06.911Z,101936.61
2019-06-01T12:50:36.427Z,101929.80
2019-06-01T12:53:05.629Z,101934.02
2019-06-01T12:55:34.863Z,101926.88
2019-06-01T12:58:04.197Z,101925.37
2019-06-01T13:00:33.477Z,101921.47
2019-06-01T13:03:07.572Z,101914.36
2019-06-01T13:05:33.774Z,101913.52
2019-06-01T13:08:03.197Z,101910.52
2019-06-01T13:10:32.435Z,101912.77
2019-06-01T13:13:01.669Z,101904.05
2019-06-01T13:15:31.121Z,101899.95
2019-06-01T13:18:00.467Z,101894.92
2019-06-01T13:20:29.956Z,101900.47
2019-06-01T13:23:00.807Z,101897.72
2019-06-01T13:25:31.518Z,101895.27
2019-06-01T13:28:00.957Z,101893.27
2019-06-01T13:30:30.370Z,101890.53
2019-06-01T13:33:02.024Z,101892.27
2019-06-01T13:35:30.973Z,101879.39
2019-06-01T13:38:11.881Z,101882.26
2019-06-01T13:40:32.733Z,101884.45
2019-06-01T13:43:04.282Z,101878.17
2019-06-01T13:45:34.662Z,101871.31
2019-06-01T13:48:05.852Z,101877.66
2019-06-01T13:50:35.254Z,101867.50
2019-06-01T13:53:04.923Z,101862.05
2019-06-01T13:55:34.256Z,101864.39
2019-06-01T13:58:03.899Z,101860.95
2019-06-01T14:00:35.977Z,101855.27
2019-06-01T14:03:11.224Z,101860.27
2019-06-01T14:05:47.357Z,101852.97
2019-06-01T14:08:28.849Z,101853.59
2019-06-01T14:10:53.677Z,101850.77
2019-06-01T14:13:29.228Z,101842.14
2019-06-01T14:15:58.882Z,101842.07
2019-06-01T14:18:35.967Z,101840.74
2019-06-01T14:21:02.836Z,101851.52
2019-06-01T14:23:34.716Z,101849.66
2019-06-01T14:26:10.659Z,101840.25
2019-06-01T14:28:42.837Z,101844.78
2019-06-01T14:31:15.377Z,101841.65
2019-06-01T14:33:50.425Z,101834.14
2019-06-01T14:36:20.158Z,101837.20
2019-06-01T14:38:54.656Z,101842.03
2019-06-01T14:41:43.914Z,101839.61
2019-06-01T14:44:07.352Z,101833.16
2019-06-01T14:46:56.169Z,101830.75
2019-06-01T14:49:20.743Z,101825.83
2019-06-01T14:51:52.126Z,101828.72
2019-06-01T14:54:30.011Z,101820.52
2019-06-01T14:57:05.248Z,101825.84
2019-06-01T14:59:35.271Z,101821.00
2019-06-01T15:02:06.949Z,101823.11
2019-06-01T15:04:36.514Z,101824.63
2019-06-01T15:07:12.352Z,101817.43
2019-06-01T15:09:50.829Z,101819.16
2019-06-01T15:12:25.315Z,101810.81
2019-06-01T15:15:07.757Z,101810.08
2019-06-01T15:17:49.204Z,101799.34
2019-06-01T15:20:26.906Z,101804.64
2019-06-01T15:23:00.778Z,101796.50
2019-06-01T15:25:33.302Z,101799.33
2019-06-01T15:28:04.001Z,101790.92
2019-06-01T15:30:35.800Z,101790.53
2019-06-01T15:33:06.674Z,101784.84
2019-06-01T15:35:46.355Z,101780.30
2019-06-01T15:38:25.670Z,101780.86
2019-06-01T15:41:00.460Z,101779.41
2019-06-01T15:43:35.751Z,101785.27
2019-06-01T15:46:18.802Z,101774.27
2019-06-01T15:48:48.162Z,101774.41
2019-06-01T15:51:21.869Z,101774.16
2019-06-01T15:53:56.957Z,101768.23
2019-06-01T15:56:30.652Z,101764.48
2019-06-01T15:59:12.344Z,101763.14
2019-06-01T16:01:43.148Z,101761.80
2019-06-01T16:04:24.320Z,101755.31
2019-06-01T16:06:55.258Z,101762.17
2019-06-01T16:09:42.223Z,101754.07
2019-06-01T16:11:59.639Z,101760.43
2019-06-01T16:14:30.419Z,101748.27
2019-06-01T16:17:12.047Z,101746.67
2019-06-01T16:19:52.106Z,101749.95
2019-06-01T16:22:22.434Z,101744.59
2019-06-01T16:24:51.967Z,101748.91
2019-06-01T16:27:21.498Z,101740.38
2019-06-01T16:29:51.024Z,101741.58
2019-06-01T16:32:20.455Z,101743.95
2019-06-01T16:34:49.836Z,101741.84
2019-06-01T16:37:21.268Z,101741.70
2019-06-01T16:40:16.966Z,101737.51
2019-06-01T16:42:47.925Z,101739.52
2019-06-01T16:45:18.390Z,101735.41
2019-06-01T16:47:47.762Z,101735.66
2019-06-01T16:50:18.076Z,101741.48
2019-06-01T16:52:47.415Z,101737.77
2019-06-01T16:55:17.352Z,101741.73
2019-06-01T16:57:46.737Z,101733.29
2019-06-01T17:00:16.753Z,101727.11
2019-06-01T17:02:46.065Z,101727.75
2019-06-01T17:05:15.901Z,101725.85
2019-06-01T17:07:45.565Z,101723.53
2019-06-01T17:10:25.762Z,101718.50
2019-06-01T17:12:49.510Z,101721.94
2019-06-01T17:15:23.282Z,101729.59
2019-06-01T17:18:02.976Z,101724.26
2019-06-01T17:20:54.119Z,101720.82
2019-06-01T17:23:32.911Z,101720.91
2019-06-01T17:25:46.159Z,101717.80
2019-06-01T17:28:15.526Z,101718.55
2019-06-01T17:30:44.973Z,101713.76
2019-06-01T17:33:16.445Z,101709.27
2019-06-01T17:35:45.548Z,101707.30
2019-06-01T17:38:20.815Z,101717.50
2019-06-01T17:40:49.845Z,101714.08
2019-06-01T17:43:19.391Z,101709.15
2019-06-01T17:45:48.867Z,101701.73
2019-06-01T17:48:26.462Z,101698.51
2019-06-01T17:50:49.249Z,101700.04
2019-06-01T17:53:18.612Z,101694.83
2019-06-01T17:55:59.537Z,101694.59
2019-06-01T17:58:45.852Z,101698.98
2019-06-01T18:01:15.304Z,101697.36
2019-06-01T18:03:44.894Z,101697.36
2019-06-01T18:06:14.480Z,101687.66
2019-06-01T18:08:46.115Z,101687.27
2019-06-01T18:11:15.456Z,101697.06
2019-06-01T18:13:44.987Z,101695.59
2019-06-01T18:16:14.493Z,101690.94
2019-06-01T18:18:46.263Z,101692.11
2019-06-01T18:21:16.363Z,101692.11
2019-06-01T18:23:49.026Z,101692.05
2019-06-01T18:26:20.037Z,101689.84
2019-06-01T18:28:49.442Z,101689.92
2019-06-01T18:31:18.995Z,101678.16
2019-06-01T18:33:48.340Z,101689.91
2019-06-01T18:36:17.741Z,101688.66
2019-06-01T18:38:47.095Z,101687.92
2019-06-01T18:41:19.889Z,101685.50
2019-06-01T18:43:47.713Z,101685.05
2019-06-01T18:46:17.277Z,101688.88
2019-06-01T18:48:46.843Z,101685.77
2019-06-01T18:51:16.335Z,101681.77
2019-06-01T18:53:45.879Z,101683.52
2019-06-01T18:56:15.218Z,101680.84
2019-06-01T18:58:44.523Z,101674.86
2019-06-01T19:05:02.173Z,101677.53
2019-06-01T19:07:31.478Z,101670.48
2019-06-01T19:10:00.811Z,101672.50
2019-06-01T19:12:30.141Z,101673.67
2019-06-01T19:14:59.556Z,101673.53
2019-06-01T19:17:28.894Z,101673.04
2019-06-01T19:19:58.232Z,101671.81
2019-06-01T19:22:27.594Z,101669.72
2019-06-01T19:24:56.912Z,101661.57
2019-06-01T19:27:26.290Z,101666.95
2019-06-01T19:29:55.628Z,101660.12
2019-06-01T19:32:25.050Z,101664.40
2019-06-01T19:34:54.374Z,101672.67
2019-06-01T19:37:23.900Z,101668.45
2019-06-01T19:39:54.331Z,101673.71
2019-06-01T19:42:23.662Z,101672.98
2019-06-01T19:44:52.993Z,101684.53
2019-06-01T19:47:22.491Z,101672.72
2019-06-01T19:49:52.052Z,101680.75
2019-06-01T19:52:21.468Z,101678.92
2019-06-01T19:54:51.042Z,101677.30
2019-06-01T19:57:22.679Z,101681.14
2019-06-01T19:59:54.671Z,101679.62
2019-06-01T20:02:33.278Z,101675.92
2019-06-01T20:04:54.546Z,101680.11
2019-06-01T20:07:23.891Z,101679.72
2019-06-01T20:09:53.301Z,101683.91
2019-06-01T20:12:22.727Z,101681.01
2019-06-01T20:14:52.186Z,101686.38
2019-06-01T20:17:24.840Z,101689.02
2019-06-01T20:19:52.735Z,101689.17
2019-06-01T20:22:22.029Z,101676.95
2019-06-01T20:24:51.439Z,101682.98
2019-06-01T20:27:21.662Z,101681.78
2019-06-01T20:29:51.402Z,101680.94
2019-06-01T20:32:22.149Z,101679.59
2019-06-01T20:34:51.652Z,101678.92
2019-06-01T20:37:22.046Z,101679.11
2019-06-01T20:39:51.589Z,101680.63
2019-06-01T20:42:30.266Z,101680.61
2019-06-01T20:44:59.966Z,101679.09
2019-06-01T20:47:29.269Z,101674.64
2019-06-01T20:49:58.561Z,101672.33
2019-06-01T20:52:28.366Z,101672.01
2019-06-01T20:55:00.772Z,101679.74
2019-06-01T20:57:29.132Z,101670.30
2019-06-01T20:59:58.658Z,101674.27
2019-06-01T21:02:28.042Z,101672.89
2019-06-01T21:04:57.432Z,101679.72
2019-06-01T21:07:26.764Z,101669.20
2019-06-01T21:09:56.144Z,101674.61
2019-06-01T21:12:44.126Z,101669.72
2019-06-01T21:14:56.508Z,101667.17
2019-06-01T21:17:25.838Z,101668.38
2019-06-01T21:19:55.188Z,101672.03
2019-06-01T21:22:24.949Z,101669.66
2019-06-01T21:24:54.845Z,101661.44
2019-06-01T21:27:24.893Z,101659.95
2019-06-01T21:29:54.415Z,101664.08
2019-06-01T21:32:23.743Z,101657.25
2019-06-01T21:34:55.756Z,101651.11
2019-06-01T21:37:25.095Z,101654.11
2019-06-01T21:39:54.472Z,101653.98
2019-06-01T21:42:23.823Z,101644.48
2019-06-01T21:44:55.242Z,101645.80
2019-06-01T21:47:25.809Z,101647.80
2019-06-01T21:53:35.774Z,101644.13
2019-06-01T22:00:02.381Z,101637.73
2019-06-01T22:02:46.787Z,101630.42
2019-06-01T22:05:23.362Z,101632.23
2019-06-01T22:08:00.899Z,101626.20
2019-06-01T22:10:30.920Z,101628.67
2019-06-01T22:13:17.681Z,101629.06
2019-06-01T22:16:08.789Z,101625.27
2019-06-01T22:18:49.971Z,101625.48
2019-06-01T22:21:41.579Z,101619.56
2019-06-01T22:24:30.925Z,101628.34
2019-06-01T22:27:12.641Z,101626.59
2019-06-01T22:30:07.371Z,101621.89
2019-06-01T22:32:40.084Z,101621.96
2019-06-01T22:35:08.081Z,101619.05
2019-06-01T22:37:37.592Z,101615.86
2019-06-01T22:40:07.532Z,101613.00
2019-06-01T22:42:39.995Z,101617.30
2019-06-01T22:49:18.284Z,101619.34
2019-06-01T22:52:48.640Z,101613.56
2019-06-01T22:54:35.240Z,101612.37
2019-06-01T22:57:30.403Z,101608.17
2019-06-01T23:00:27.846Z,101608.94
2019-06-01T23:03:03.745Z,101608.45
2019-06-01T23:05:50.296Z,101605.83
2019-06-01T23:08:48.540Z,101601.05
2019-06-01T23:11:31.700Z,101594.33
2019-06-01T23:14:09.898Z,101597.80
2019-06-01T23:17:50.201Z,101592.53
2019-06-01T23:23:24.517Z,101592.27
2019-06-01T23:25:57.442Z,101595.56
2019-06-01T23:33:26.978Z,101587.75
2019-06-01T23:35:56.128Z,101579.89
2019-06-01T23:38:28.702Z,101576.13
2019-06-01T23:40:58.157Z,101581.63
2019-06-01T23:43:28.880Z,101574.78
2019-06-01T23:45:58.467Z,101577.19
2019-06-01T23:48:27.785Z,101570.24
2019-06-01T23:50:57.205Z,101561.08
2019-06-01T23:53:27.479Z,101563.37
2019-06-01T23:55:56.936Z,101558.45
2019-06-01T23:58:26.343Z,101554.85
